CheckWX is a tool to help pilots better visualize weather data.  It is not intended as a substitute for an official pre-flight weather briefing.

04:52:05 UTC

KJNX METAR
Johnston Regional Airport
Smithfield, North Carolina, USA
Current

17 mins ago

KJNX 260435Z AUTO 03005KT 10SM CLR 20/18 A3009 RMK AO2
Observed
Aug-26 @ 04:35 UTC
Wind
  • 030° at 5 KTS
Visibility
10 SM
Flight Rules
VFR
Cloud Levels
  • Clear skies
Temperature
20°C / 68°F
Dewpoint
18°C / 64°F
Humidity
88%
Altimeter
30.09" Hg
Pressure
1018.92 hPa
Previous

37 mins ago

KJNX 260415Z AUTO 02005KT 10SM SCT050 20/18 A3010 RMK AO2
Observed
Aug-26 @ 04:15 UTC
Wind
  • 020° at 5 KTS
Visibility
10 SM
Flight Rules
VFR
Cloud Levels
  • Scattered at 5,000' AGL
Temperature
20°C / 68°F
Dewpoint
18°C / 64°F
Humidity
88%
Altimeter
30.1" Hg
Pressure
1019.32 hPa
Previous

57 mins ago

KJNX 260355Z AUTO 02004KT 10SM OVC050 20/18 A3010 RMK AO2
Observed
Aug-26 @ 03:55 UTC
Wind
  • 020° at 4 KTS
Visibility
10 SM
Flight Rules
VFR
Cloud Levels
  • Overcast at 5,000' AGL
Temperature
20°C / 68°F
Dewpoint
18°C / 64°F
Humidity
88%
Altimeter
30.1" Hg
Pressure
1019.32 hPa